KLM52B MBPV-MDPC
Flight info
| Callsign | KLM52B |
|---|---|
| Flight time | 0h 50m |
| Altitude | 35000 |
| Route | TOMAZ4 TOMAZ L463 JUELE UW38 PTA DCT POBON W28 BEREL BEREL1W |
| Aircraft | B738/M-SDE2E3FGHIRWXY/LB1 |
Departure
| Time | 2026-04-21 11:47 |
|---|---|
| Airport | Providenciales International Airport (MBPV) |
Arrival
| Time | 2026-04-21 12:37 |
|---|---|
| Airport | Punta Cana International Airport (MDPC) |
| Time | Latitude | Longitude | Altitude | Speed | Heading |
|---|---|---|---|---|---|
| 2026-04-21 11:27 | 21.77116 | -72.27264 | 29 ft | 0 kts | 3° |
| 2026-04-21 11:42 | 21.77133 | -72.27260 | 29 ft | 7 kts | 23° |
| 2026-04-21 11:43 | 21.77195 | -72.27222 | 29 ft | 15 kts | 13° |
| 2026-04-21 11:43 | 21.77288 | -72.27212 | 29 ft | 11 kts | 3° |
| 2026-04-21 11:43 | 21.77361 | -72.27215 | 28 ft | 10 kts | 339° |
| 2026-04-21 11:43 | 21.77393 | -72.27282 | 29 ft | 11 kts | 278° |
| 2026-04-21 11:44 | 21.77400 | -72.27408 | 31 ft | 24 kts | 273° |
| 2026-04-21 11:44 | 21.77409 | -72.27597 | 32 ft | 25 kts | 272° |
| 2026-04-21 11:44 | 21.77418 | -72.27775 | 33 ft | 23 kts | 273° |
| 2026-04-21 11:44 | 21.77425 | -72.27946 | 32 ft | 22 kts | 273° |
| 2026-04-21 11:45 | 21.77432 | -72.28097 | 35 ft | 18 kts | 275° |
| 2026-04-21 11:45 | 21.77467 | -72.28196 | 35 ft | 9 kts | 255° |
| 2026-04-21 11:45 | 21.77447 | -72.28203 | 35 ft | 3 kts | 166° |
| 2026-04-21 11:45 | 21.77434 | -72.28157 | 35 ft | 5 kts | 93° |
| 2026-04-21 11:46 | 21.77434 | -72.28153 | 35 ft | 0 kts | 92° |
| 2026-04-21 11:46 | 21.77432 | -72.28106 | 35 ft | 32 kts | 92° |
| 2026-04-21 11:46 | 21.77408 | -72.27555 | 32 ft | 115 kts | 93° |
| 2026-04-21 11:46 | 21.77340 | -72.26468 | 230 ft | 164 kts | 94° |
| 2026-04-21 11:47 | 21.77252 | -72.25283 | 1237 ft | 151 kts | 91° |
| 2026-04-21 11:47 | 21.77194 | -72.24117 | 2077 ft | 162 kts | 91° |
| 2026-04-21 11:47 | 21.77129 | -72.22782 | 2541 ft | 197 kts | 91° |
| 2026-04-21 11:47 | 21.77045 | -72.21189 | 2837 ft | 226 kts | 92° |
| 2026-04-21 11:48 | 21.76887 | -72.19421 | 3198 ft | 253 kts | 104° |
| 2026-04-21 11:48 | 21.75928 | -72.17778 | 3892 ft | 267 kts | 135° |
| 2026-04-21 11:48 | 21.74465 | -72.16527 | 4981 ft | 271 kts | 143° |
| 2026-04-21 11:48 | 21.72892 | -72.15371 | 5884 ft | 278 kts | 145° |
| 2026-04-21 11:49 | 21.71279 | -72.14223 | 6785 ft | 283 kts | 146° |
| 2026-04-21 11:49 | 21.69627 | -72.13047 | 7716 ft | 287 kts | 146° |
| 2026-04-21 11:49 | 21.67955 | -72.11848 | 8635 ft | 291 kts | 146° |
| 2026-04-21 11:49 | 21.66255 | -72.10619 | 9553 ft | 297 kts | 146° |
| 2026-04-21 11:50 | 21.64533 | -72.09367 | 10420 ft | 302 kts | 146° |
| 2026-04-21 11:50 | 21.62737 | -72.08056 | 10851 ft | 323 kts | 146° |
| 2026-04-21 11:50 | 21.60841 | -72.06668 | 11461 ft | 335 kts | 146° |
| 2026-04-21 11:50 | 21.58897 | -72.05242 | 12201 ft | 342 kts | 146° |
| 2026-04-21 11:51 | 21.56924 | -72.03793 | 13038 ft | 345 kts | 146° |
| 2026-04-21 11:51 | 21.54928 | -72.02327 | 13856 ft | 350 kts | 146° |
| 2026-04-21 11:51 | 21.52907 | -72.00843 | 14562 ft | 354 kts | 146° |
| 2026-04-21 11:51 | 21.50858 | -71.99338 | 15271 ft | 359 kts | 147° |
| 2026-04-21 11:52 | 21.48785 | -71.97816 | 15999 ft | 363 kts | 147° |
| 2026-04-21 11:52 | 21.46688 | -71.96277 | 16698 ft | 367 kts | 147° |
| 2026-04-21 11:52 | 21.44561 | -71.94716 | 17375 ft | 372 kts | 147° |
| 2026-04-21 11:52 | 21.42409 | -71.93138 | 18059 ft | 377 kts | 147° |
| 2026-04-21 11:53 | 21.40231 | -71.91541 | 18682 ft | 381 kts | 148° |
| 2026-04-21 11:53 | 21.38058 | -71.89947 | 19259 ft | 385 kts | 148° |
| 2026-04-21 11:53 | 21.35802 | -71.88293 | 19848 ft | 390 kts | 148° |
| 2026-04-21 11:53 | 21.33576 | -71.86662 | 20438 ft | 394 kts | 148° |
| 2026-04-21 11:54 | 21.31301 | -71.84998 | 21018 ft | 398 kts | 148° |
| 2026-04-21 11:54 | 21.29009 | -71.83287 | 21598 ft | 403 kts | 147° |
| 2026-04-21 11:54 | 21.26718 | -71.81525 | 22162 ft | 407 kts | 147° |
| 2026-04-21 11:54 | 21.24402 | -71.79725 | 22726 ft | 411 kts | 147° |
| 2026-04-21 11:55 | 21.22073 | -71.77914 | 23266 ft | 416 kts | 147° |
| 2026-04-21 11:55 | 21.19721 | -71.76089 | 23773 ft | 420 kts | 147° |
| 2026-04-21 11:55 | 21.17340 | -71.74248 | 24202 ft | 424 kts | 147° |
| 2026-04-21 11:55 | 21.14962 | -71.72413 | 24616 ft | 429 kts | 148° |
| 2026-04-21 11:56 | 21.12527 | -71.70536 | 25037 ft | 433 kts | 148° |
| 2026-04-21 11:56 | 21.10066 | -71.68641 | 25462 ft | 437 kts | 148° |
| 2026-04-21 11:56 | 21.07584 | -71.66730 | 25881 ft | 441 kts | 148° |
| 2026-04-21 11:56 | 21.05079 | -71.64802 | 26287 ft | 445 kts | 148° |
| 2026-04-21 11:57 | 21.02551 | -71.62858 | 26682 ft | 449 kts | 148° |
| 2026-04-21 11:57 | 21.00002 | -71.60896 | 27082 ft | 453 kts | 148° |
| 2026-04-21 11:57 | 20.97463 | -71.58847 | 27469 ft | 458 kts | 146° |
| 2026-04-21 11:57 | 20.94952 | -71.56727 | 27847 ft | 463 kts | 145° |
| 2026-04-21 11:58 | 20.92426 | -71.54561 | 28213 ft | 467 kts | 145° |
| 2026-04-21 11:58 | 20.89882 | -71.52376 | 28607 ft | 470 kts | 145° |
| 2026-04-21 11:58 | 20.87356 | -71.50215 | 29119 ft | 469 kts | 146° |
| 2026-04-21 11:58 | 20.84801 | -71.48042 | 29658 ft | 469 kts | 146° |
| 2026-04-21 11:59 | 20.82244 | -71.45877 | 30161 ft | 469 kts | 146° |
| 2026-04-21 11:59 | 20.79681 | -71.43715 | 30567 ft | 470 kts | 146° |
| 2026-04-21 11:59 | 20.77111 | -71.41551 | 30986 ft | 470 kts | 146° |
| 2026-04-21 11:59 | 20.74544 | -71.39391 | 31424 ft | 470 kts | 146° |
| 2026-04-21 12:00 | 20.71978 | -71.37232 | 31857 ft | 469 kts | 146° |
| 2026-04-21 12:00 | 20.69407 | -71.35070 | 32282 ft | 469 kts | 146° |
| 2026-04-21 12:00 | 20.66841 | -71.32912 | 32727 ft | 468 kts | 147° |
| 2026-04-21 12:00 | 20.64278 | -71.30758 | 33071 ft | 470 kts | 147° |
| 2026-04-21 12:01 | 20.59109 | -71.26417 | 33062 ft | 471 kts | 147° |
| 2026-04-21 12:01 | 20.54028 | -71.22149 | 33060 ft | 466 kts | 147° |
| 2026-04-21 12:02 | 20.46353 | -71.15716 | 33081 ft | 468 kts | 146° |
| 2026-04-21 12:03 | 20.41227 | -71.11423 | 33071 ft | 469 kts | 146° |
| 2026-04-21 12:03 | 20.36086 | -71.07122 | 33069 ft | 469 kts | 146° |
| 2026-04-21 12:04 | 20.30982 | -71.02853 | 33067 ft | 468 kts | 146° |
| 2026-04-21 12:04 | 20.25861 | -70.98573 | 33066 ft | 467 kts | 146° |
| 2026-04-21 12:05 | 20.20762 | -70.94314 | 33062 ft | 465 kts | 146° |
| 2026-04-21 12:05 | 20.16533 | -70.90786 | 33065 ft | 464 kts | 146° |
| 2026-04-21 12:06 | 20.10779 | -70.85988 | 33074 ft | 463 kts | 146° |
| 2026-04-21 12:06 | 20.06525 | -70.82445 | 33066 ft | 463 kts | 146° |
| 2026-04-21 12:07 | 20.01477 | -70.78242 | 33063 ft | 463 kts | 146° |
| 2026-04-21 12:07 | 19.96405 | -70.74023 | 33064 ft | 463 kts | 146° |
| 2026-04-21 12:08 | 19.91331 | -70.69806 | 33052 ft | 463 kts | 146° |
| 2026-04-21 12:08 | 19.86256 | -70.65591 | 33055 ft | 463 kts | 146° |
| 2026-04-21 12:09 | 19.81181 | -70.61379 | 33047 ft | 462 kts | 146° |
| 2026-04-21 12:09 | 19.76291 | -70.56927 | 33043 ft | 467 kts | 135° |
| 2026-04-21 12:09 | 19.74266 | -70.54213 | 33046 ft | 470 kts | 124° |
| 2026-04-21 12:10 | 19.72585 | -70.51236 | 33059 ft | 471 kts | 121° |
| 2026-04-21 12:10 | 19.69385 | -70.45208 | 33043 ft | 471 kts | 121° |
| 2026-04-21 12:10 | 19.67782 | -70.42174 | 32846 ft | 473 kts | 121° |
| 2026-04-21 12:11 | 19.66159 | -70.39127 | 32435 ft | 470 kts | 121° |
| 2026-04-21 12:11 | 19.64562 | -70.36157 | 32053 ft | 466 kts | 121° |
| 2026-04-21 12:11 | 19.62949 | -70.33178 | 31656 ft | 463 kts | 121° |
| 2026-04-21 12:11 | 19.61344 | -70.30227 | 31267 ft | 461 kts | 121° |
| 2026-04-21 12:12 | 19.59742 | -70.27291 | 30877 ft | 458 kts | 121° |
| 2026-04-21 12:12 | 19.58149 | -70.24372 | 30485 ft | 456 kts | 121° |
| 2026-04-21 12:12 | 19.56559 | -70.21462 | 30071 ft | 454 kts | 121° |
| 2026-04-21 12:12 | 19.54976 | -70.18564 | 29602 ft | 452 kts | 121° |
| 2026-04-21 12:13 | 19.53424 | -70.15723 | 29181 ft | 448 kts | 121° |
| 2026-04-21 12:13 | 19.51867 | -70.12874 | 28753 ft | 444 kts | 121° |
| 2026-04-21 12:13 | 19.50321 | -70.10046 | 28356 ft | 441 kts | 121° |
| 2026-04-21 12:13 | 19.48789 | -70.07245 | 27939 ft | 437 kts | 121° |
| 2026-04-21 12:14 | 19.47272 | -70.04471 | 27532 ft | 434 kts | 121° |
| 2026-04-21 12:14 | 19.45761 | -70.01712 | 27125 ft | 430 kts | 121° |
| 2026-04-21 12:14 | 19.44265 | -69.98981 | 26721 ft | 427 kts | 121° |
| 2026-04-21 12:14 | 19.42776 | -69.96262 | 26322 ft | 424 kts | 121° |
| 2026-04-21 12:15 | 19.41300 | -69.93569 | 25924 ft | 421 kts | 121° |
| 2026-04-21 12:15 | 19.39850 | -69.90925 | 25531 ft | 419 kts | 121° |
| 2026-04-21 12:15 | 19.38393 | -69.88270 | 25122 ft | 416 kts | 121° |
| 2026-04-21 12:15 | 19.36939 | -69.85621 | 24723 ft | 414 kts | 121° |
| 2026-04-21 12:16 | 19.35494 | -69.82990 | 24313 ft | 412 kts | 121° |
| 2026-04-21 12:16 | 19.34056 | -69.80373 | 23913 ft | 410 kts | 121° |
| 2026-04-21 12:16 | 19.32625 | -69.77770 | 23499 ft | 408 kts | 121° |
| 2026-04-21 12:16 | 19.31205 | -69.75187 | 23061 ft | 404 kts | 121° |
| 2026-04-21 12:17 | 19.29801 | -69.72634 | 22648 ft | 399 kts | 121° |
| 2026-04-21 12:17 | 19.28411 | -69.70109 | 22259 ft | 395 kts | 121° |
| 2026-04-21 12:17 | 19.27032 | -69.67604 | 21879 ft | 392 kts | 121° |
| 2026-04-21 12:17 | 19.25666 | -69.65123 | 21492 ft | 388 kts | 121° |
| 2026-04-21 12:18 | 19.24311 | -69.62665 | 21118 ft | 385 kts | 121° |
| 2026-04-21 12:18 | 19.22969 | -69.60230 | 20751 ft | 382 kts | 121° |
| 2026-04-21 12:18 | 19.21652 | -69.57843 | 20414 ft | 378 kts | 121° |
| 2026-04-21 12:18 | 19.20330 | -69.55446 | 20039 ft | 375 kts | 121° |
| 2026-04-21 12:19 | 19.19016 | -69.53067 | 19670 ft | 373 kts | 121° |
| 2026-04-21 12:19 | 19.17714 | -69.50708 | 19300 ft | 370 kts | 120° |
| 2026-04-21 12:19 | 19.16424 | -69.48371 | 18905 ft | 363 kts | 120° |
| 2026-04-21 12:19 | 19.15164 | -69.46092 | 18558 ft | 355 kts | 120° |
| 2026-04-21 12:20 | 19.13929 | -69.43857 | 18171 ft | 348 kts | 120° |
| 2026-04-21 12:20 | 19.12706 | -69.41645 | 17786 ft | 346 kts | 120° |
| 2026-04-21 12:20 | 19.11489 | -69.39445 | 17371 ft | 346 kts | 120° |
| 2026-04-21 12:20 | 19.10278 | -69.37256 | 17008 ft | 344 kts | 120° |
| 2026-04-21 12:21 | 19.09074 | -69.35081 | 16650 ft | 341 kts | 120° |
| 2026-04-21 12:21 | 19.07894 | -69.32950 | 16302 ft | 339 kts | 120° |
| 2026-04-21 12:21 | 19.06706 | -69.30806 | 15948 ft | 337 kts | 120° |
| 2026-04-21 12:21 | 19.05522 | -69.28669 | 15603 ft | 335 kts | 120° |
| 2026-04-21 12:22 | 19.04346 | -69.26546 | 15259 ft | 333 kts | 120° |
| 2026-04-21 12:22 | 19.03173 | -69.24432 | 14914 ft | 332 kts | 120° |
| 2026-04-21 12:22 | 19.02008 | -69.22331 | 14568 ft | 330 kts | 120° |
| 2026-04-21 12:22 | 19.00848 | -69.20239 | 14222 ft | 329 kts | 120° |
| 2026-04-21 12:23 | 18.99705 | -69.18180 | 13868 ft | 328 kts | 120° |
| 2026-04-21 12:23 | 18.98538 | -69.16078 | 13477 ft | 326 kts | 120° |
| 2026-04-21 12:23 | 18.97408 | -69.14043 | 13124 ft | 324 kts | 120° |
| 2026-04-21 12:23 | 18.96270 | -69.11995 | 12771 ft | 322 kts | 120° |
| 2026-04-21 12:24 | 18.95138 | -69.09957 | 12420 ft | 320 kts | 120° |
| 2026-04-21 12:24 | 18.94013 | -69.07934 | 12069 ft | 318 kts | 120° |
| 2026-04-21 12:24 | 18.92894 | -69.05921 | 11721 ft | 316 kts | 120° |
| 2026-04-21 12:24 | 18.91783 | -69.03924 | 11381 ft | 314 kts | 120° |
| 2026-04-21 12:25 | 18.90679 | -69.01940 | 11043 ft | 312 kts | 120° |
| 2026-04-21 12:25 | 18.89581 | -68.99967 | 10711 ft | 310 kts | 120° |
| 2026-04-21 12:25 | 18.88496 | -68.97995 | 10315 ft | 311 kts | 119° |
| 2026-04-21 12:25 | 18.87445 | -68.96026 | 10121 ft | 304 kts | 118° |
| 2026-04-21 12:26 | 18.86422 | -68.94098 | 9967 ft | 296 kts | 118° |
| 2026-04-21 12:26 | 18.85434 | -68.92239 | 9770 ft | 290 kts | 118° |
| 2026-04-21 12:26 | 18.84462 | -68.90417 | 9557 ft | 285 kts | 118° |
| 2026-04-21 12:26 | 18.83502 | -68.88619 | 9389 ft | 277 kts | 118° |
| 2026-04-21 12:27 | 18.82538 | -68.86879 | 9207 ft | 270 kts | 123° |
| 2026-04-21 12:27 | 18.81429 | -68.85310 | 8932 ft | 262 kts | 128° |
| 2026-04-21 12:27 | 18.80294 | -68.83835 | 8670 ft | 255 kts | 128° |
| 2026-04-21 12:27 | 18.79189 | -68.82408 | 8423 ft | 247 kts | 128° |
| 2026-04-21 12:28 | 18.78114 | -68.81009 | 8183 ft | 244 kts | 128° |
| 2026-04-21 12:28 | 18.77051 | -68.79614 | 7945 ft | 243 kts | 128° |
| 2026-04-21 12:28 | 18.76004 | -68.78234 | 7714 ft | 242 kts | 128° |
| 2026-04-21 12:28 | 18.74955 | -68.76845 | 7464 ft | 242 kts | 128° |
| 2026-04-21 12:29 | 18.73909 | -68.75459 | 7212 ft | 241 kts | 128° |
| 2026-04-21 12:29 | 18.72866 | -68.74073 | 6967 ft | 241 kts | 128° |
| 2026-04-21 12:29 | 18.71827 | -68.72691 | 6720 ft | 240 kts | 128° |
| 2026-04-21 12:29 | 18.70789 | -68.71312 | 6468 ft | 239 kts | 128° |
| 2026-04-21 12:30 | 18.69751 | -68.69934 | 6203 ft | 239 kts | 128° |
| 2026-04-21 12:30 | 18.68731 | -68.68578 | 5958 ft | 239 kts | 128° |
| 2026-04-21 12:30 | 18.67695 | -68.67197 | 5719 ft | 239 kts | 127° |
| 2026-04-21 12:30 | 18.66656 | -68.65809 | 5414 ft | 244 kts | 127° |
| 2026-04-21 12:31 | 18.65599 | -68.64402 | 5119 ft | 245 kts | 127° |
| 2026-04-21 12:31 | 18.64535 | -68.62985 | 4827 ft | 247 kts | 127° |
| 2026-04-21 12:31 | 18.63472 | -68.61569 | 4496 ft | 243 kts | 127° |
| 2026-04-21 12:31 | 18.62432 | -68.60184 | 4221 ft | 238 kts | 128° |
| 2026-04-21 12:32 | 18.61411 | -68.58822 | 3900 ft | 235 kts | 128° |
| 2026-04-21 12:32 | 18.60256 | -68.57622 | 3629 ft | 236 kts | 151° |
| 2026-04-21 12:32 | 18.58749 | -68.57004 | 3447 ft | 234 kts | 162° |
| 2026-04-21 12:32 | 18.57196 | -68.56547 | 3301 ft | 229 kts | 164° |
| 2026-04-21 12:33 | 18.55689 | -68.56116 | 3230 ft | 218 kts | 163° |
| 2026-04-21 12:33 | 18.54318 | -68.55647 | 3171 ft | 196 kts | 148° |
| 2026-04-21 12:33 | 18.53539 | -68.54602 | 3097 ft | 179 kts | 102° |
| 2026-04-21 12:33 | 18.53478 | -68.53330 | 2938 ft | 173 kts | 96° |
| 2026-04-21 12:34 | 18.53472 | -68.52073 | 2747 ft | 172 kts | 82° |
| 2026-04-21 12:34 | 18.53687 | -68.50826 | 2519 ft | 173 kts | 79° |
| 2026-04-21 12:34 | 18.53972 | -68.49598 | 2241 ft | 172 kts | 76° |
| 2026-04-21 12:34 | 18.54303 | -68.48430 | 2032 ft | 168 kts | 73° |
| 2026-04-21 12:35 | 18.54611 | -68.47269 | 1871 ft | 161 kts | 77° |
| 2026-04-21 12:35 | 18.54899 | -68.46110 | 1585 ft | 161 kts | 76° |
| 2026-04-21 12:35 | 18.55208 | -68.45001 | 1418 ft | 158 kts | 75° |
| 2026-04-21 12:35 | 18.55514 | -68.43881 | 1223 ft | 158 kts | 75° |
| 2026-04-21 12:36 | 18.55809 | -68.42794 | 987 ft | 151 kts | 75° |
| 2026-04-21 12:36 | 18.56093 | -68.41746 | 801 ft | 148 kts | 75° |
| 2026-04-21 12:36 | 18.56377 | -68.40704 | 613 ft | 148 kts | 74° |
| 2026-04-21 12:36 | 18.56663 | -68.39662 | 397 ft | 148 kts | 75° |
| 2026-04-21 12:37 | 18.56947 | -68.38599 | 143 ft | 151 kts | 74° |
| 2026-04-21 12:37 | 18.57228 | -68.37573 | 45 ft | 130 kts | 73° |
| 2026-04-21 12:37 | 18.57419 | -68.36881 | 48 ft | 68 kts | 73° |
| 2026-04-21 12:37 | 18.57510 | -68.36563 | 47 ft | 26 kts | 73° |
| 2026-04-21 12:38 | 18.57559 | -68.36385 | 44 ft | 24 kts | 74° |
| 2026-04-21 12:38 | 18.57602 | -68.36218 | 48 ft | 23 kts | 79° |
| 2026-04-21 12:38 | 18.57598 | -68.36060 | 47 ft | 17 kts | 99° |
| 2026-04-21 12:38 | 18.57570 | -68.35948 | 49 ft | 15 kts | 111° |
| 2026-04-21 12:39 | 18.57506 | -68.35862 | 49 ft | 16 kts | 146° |
| 2026-04-21 12:39 | 18.57389 | -68.35831 | 49 ft | 20 kts | 180° |
| 2026-04-21 12:39 | 18.57240 | -68.35826 | 48 ft | 22 kts | 176° |
| 2026-04-21 12:39 | 18.57082 | -68.35816 | 49 ft | 23 kts | 176° |
| 2026-04-21 12:40 | 18.56930 | -68.35807 | 48 ft | 21 kts | 176° |
| 2026-04-21 12:40 | 18.56785 | -68.35797 | 47 ft | 21 kts | 176° |
| 2026-04-21 12:40 | 18.56645 | -68.35780 | 48 ft | 20 kts | 175° |
| 2026-04-21 12:40 | 18.56535 | -68.35786 | 49 ft | 15 kts | 211° |
| 2026-04-21 12:41 | 18.56508 | -68.35862 | 49 ft | 11 kts | 264° |
| 2026-04-21 12:41 | 18.56500 | -68.35946 | 49 ft | 13 kts | 264° |
| 2026-04-21 12:41 | 18.56489 | -68.36054 | 49 ft | 16 kts | 263° |
| 2026-04-21 12:41 | 18.56483 | -68.36134 | 49 ft | 10 kts | 265° |
| 2026-04-21 12:42 | 18.56478 | -68.36202 | 49 ft | 8 kts | 265° |
| 2026-04-21 12:42 | 18.56467 | -68.36224 | 47 ft | 2 kts | 198° |
| 2026-04-21 12:42 | 18.56441 | -68.36223 | 49 ft | 8 kts | 178° |
| 2026-04-21 12:42 | 18.56401 | -68.36221 | 49 ft | 1 kts | 175° |
| 2026-04-21 12:43 | 18.56391 | -68.36219 | 49 ft | 2 kts | 175° |
| 2026-04-21 12:43 | 18.56390 | -68.36219 | 49 ft | 0 kts | 175° |